sensor_id;sensor_type;location;lat;lon;timestamp;pressure;altitude;pressure_sealevel;temperature;humidity
17450;BME280;8842;51.244;7.102;2022-07-23T00:00:10;99633.22;;;17.15;100.00
17450;BME280;8842;51.244;7.102;2022-07-23T00:10:27;99605.45;;;17.03;100.00
17450;BME280;8842;51.244;7.102;2022-07-23T00:20:45;99617.78;;;16.78;100.00
17450;BME280;8842;51.244;7.102;2022-07-23T00:31:01;99604.83;;;16.56;100.00
17450;BME280;8842;51.244;7.102;2022-07-23T00:41:18;99600.08;;;16.68;100.00
17450;BME280;8842;51.244;7.102;2022-07-23T00:51:35;99597.87;;;16.81;100.00
17450;BME280;8842;51.244;7.102;2022-07-23T01:01:50;99595.29;;;16.75;100.00
17450;BME280;8842;51.244;7.102;2022-07-23T01:12:08;99581.73;;;16.59;100.00
17450;BME280;8842;51.244;7.102;2022-07-23T01:32:41;99591.91;;;16.56;100.00
17450;BME280;8842;51.244;7.102;2022-07-23T01:42:59;99593.05;;;16.40;100.00
17450;BME280;8842;51.244;7.102;2022-07-23T01:53:16;99592.70;;;16.48;100.00
17450;BME280;8842;51.244;7.102;2022-07-23T02:03:33;99581.42;;;16.62;100.00
17450;BME280;8842;51.244;7.102;2022-07-23T02:19:01;99573.38;;;16.45;100.00
17450;BME280;8842;51.244;7.102;2022-07-23T02:29:18;99577.82;;;16.40;100.00
17450;BME280;8842;51.244;7.102;2022-07-23T02:39:34;99576.53;;;16.31;100.00
17450;BME280;8842;51.244;7.102;2022-07-23T02:49:51;99565.87;;;16.35;100.00
17450;BME280;8842;51.244;7.102;2022-07-23T03:05:24;99578.72;;;16.31;100.00
17450;BME280;8842;51.244;7.102;2022-07-23T03:15:41;99583.14;;;16.36;100.00
17450;BME280;8842;51.244;7.102;2022-07-23T03:25:58;99570.65;;;16.27;100.00
17450;BME280;8842;51.244;7.102;2022-07-23T03:36:14;99575.76;;;16.07;100.00
17450;BME280;8842;51.244;7.102;2022-07-23T03:46:30;99570.17;;;15.87;100.00
17450;BME280;8842;51.244;7.102;2022-07-23T03:51:34;99573.52;;;15.89;100.00
17450;BME280;8842;51.244;7.102;2022-07-23T03:56:38;99574.28;;;15.68;100.00
17450;BME280;8842;51.244;7.102;2022-07-23T04:06:54;99583.45;;;15.79;100.00
17450;BME280;8842;51.244;7.102;2022-07-23T04:17:11;99578.97;;;15.70;100.00
17450;BME280;8842;51.244;7.102;2022-07-23T04:32:38;99588.30;;;15.66;100.00
17450;BME280;8842;51.244;7.102;2022-07-23T04:42:55;99591.78;;;15.76;100.00
17450;BME280;8842;51.244;7.102;2022-07-23T04:53:11;99608.36;;;15.75;100.00
17450;BME280;8842;51.244;7.102;2022-07-23T05:03:27;99626.93;;;15.77;100.00
17450;BME280;8842;51.244;7.102;2022-07-23T05:13:43;99632.75;;;15.86;100.00
17450;BME280;8842;51.244;7.102;2022-07-23T05:24:00;99642.12;;;16.09;100.00
17450;BME280;8842;51.244;7.102;2022-07-23T05:55:05;99674.59;;;16.60;100.00
17450;BME280;8842;51.244;7.102;2022-07-23T06:05:22;99669.16;;;16.83;100.00
17450;BME280;8842;51.244;7.102;2022-07-23T06:15:38;99679.70;;;17.16;100.00
17450;BME280;8842;51.244;7.102;2022-07-23T06:25:55;99683.53;;;17.48;100.00
17450;BME280;8842;51.244;7.102;2022-07-23T06:36:11;99685.00;;;17.64;100.00
17450;BME280;8842;51.244;7.102;2022-07-23T06:46:27;99693.12;;;17.72;100.00
17450;BME280;8842;51.244;7.102;2022-07-23T06:56:43;99696.45;;;17.92;100.00
17450;BME280;8842;51.244;7.102;2022-07-23T07:07:01;99700.36;;;18.02;100.00
17450;BME280;8842;51.244;7.102;2022-07-23T07:32:57;99719.63;;;18.19;100.00
17450;BME280;8842;51.244;7.102;2022-07-23T07:43:12;99730.36;;;18.44;100.00
17450;BME280;8842;51.244;7.102;2022-07-23T08:03:59;99751.17;;;19.25;100.00
17450;BME280;8842;51.244;7.102;2022-07-23T08:14:17;99750.73;;;19.62;100.00
17450;BME280;8842;51.244;7.102;2022-07-23T08:24:36;99764.13;;;20.54;100.00
17450;BME280;8842;51.244;7.102;2022-07-23T08:34:51;99765.37;;;20.20;100.00
17450;BME280;8842;51.244;7.102;2022-07-23T08:39:55;99772.08;;;20.44;100.00
17450;BME280;8842;51.244;7.102;2022-07-23T08:44:59;99782.44;;;21.44;100.00
17450;BME280;8842;51.244;7.102;2022-07-23T08:50:05;99785.36;;;22.25;94.06
17450;BME280;8842;51.244;7.102;2022-07-23T09:00:25;99792.55;;;24.01;78.34
17450;BME280;8842;51.244;7.102;2022-07-23T09:10:50;99782.44;;;24.88;78.73
17450;BME280;8842;51.244;7.102;2022-07-23T09:21:16;99789.29;;;24.50;78.32
17450;BME280;8842;51.244;7.102;2022-07-23T09:31:34;99796.33;;;24.28;76.03
17450;BME280;8842;51.244;7.102;2022-07-23T09:36:40;99793.48;;;24.80;70.65
17450;BME280;8842;51.244;7.102;2022-07-23T09:47:00;99785.23;;;25.49;73.25
17450;BME280;8842;51.244;7.102;2022-07-23T09:57:19;99782.19;;;26.04;67.66
17450;BME280;8842;51.244;7.102;2022-07-23T10:07:40;99784.83;;;26.08;69.22
17450;BME280;8842;51.244;7.102;2022-07-23T10:12:45;99784.80;;;25.95;66.55
17450;BME280;8842;51.244;7.102;2022-07-23T10:23:24;99785.64;;;26.08;66.36
17450;BME280;8842;51.244;7.102;2022-07-23T10:40:13;99773.94;;;25.52;68.76
17450;BME280;8842;51.244;7.102;2022-07-23T10:45:30;99771.30;;;26.04;63.49
17450;BME280;8842;51.244;7.102;2022-07-23T10:55:50;99764.89;;;26.66;57.00
17450;BME280;8842;51.244;7.102;2022-07-23T11:06:06;99758.69;;;26.68;64.13
17450;BME280;8842;51.244;7.102;2022-07-23T11:27:04;99763.30;;;27.02;59.02
17450;BME280;8842;51.244;7.102;2022-07-23T11:37:36;99756.17;;;26.47;62.63
17450;BME280;8842;51.244;7.102;2022-07-23T11:48:04;99754.71;;;26.70;63.63
17450;BME280;8842;51.244;7.102;2022-07-23T11:58:21;99751.38;;;26.90;59.52
17450;BME280;8842;51.244;7.102;2022-07-23T12:08:42;99753.17;;;27.16;54.96
17450;BME280;8842;51.244;7.102;2022-07-23T12:19:08;99758.92;;;26.95;55.29
17450;BME280;8842;51.244;7.102;2022-07-23T12:29:35;99742.19;;;26.30;61.08
17450;BME280;8842;51.244;7.102;2022-07-23T12:39:52;99741.00;;;25.64;61.28
17450;BME280;8842;51.244;7.102;2022-07-23T12:50:32;99748.20;;;25.00;60.71
17450;BME280;8842;51.244;7.102;2022-07-23T13:00:58;99750.47;;;24.73;62.63
17450;BME280;8842;51.244;7.102;2022-07-23T13:11:16;99750.27;;;24.58;61.71
17450;BME280;8842;51.244;7.102;2022-07-23T13:21:32;99760.53;;;24.62;63.15
17450;BME280;8842;51.244;7.102;2022-07-23T13:31:49;99761.13;;;24.58;62.47
17450;BME280;8842;51.244;7.102;2022-07-23T13:36:54;99759.30;;;24.48;63.98
17450;BME280;8842;51.244;7.102;2022-07-23T13:52:21;99746.08;;;24.55;61.60
17450;BME280;8842;51.244;7.102;2022-07-23T13:57:26;99751.66;;;24.47;64.43
17450;BME280;8842;51.244;7.102;2022-07-23T14:07:42;99737.64;;;24.61;63.32
17450;BME280;8842;51.244;7.102;2022-07-23T14:18:05;99723.05;;;24.51;65.26
17450;BME280;8842;51.244;7.102;2022-07-23T14:28:22;99726.64;;;24.58;62.60
17450;BME280;8842;51.244;7.102;2022-07-23T14:38:37;99731.73;;;24.51;58.94
17450;BME280;8842;51.244;7.102;2022-07-23T14:43:41;99728.88;;;24.48;60.03
17450;BME280;8842;51.244;7.102;2022-07-23T14:48:46;99723.92;;;24.58;61.09
17450;BME280;8842;51.244;7.102;2022-07-23T14:59:02;99727.27;;;24.71;60.77
17450;BME280;8842;51.244;7.102;2022-07-23T15:09:18;99714.34;;;24.62;62.93
17450;BME280;8842;51.244;7.102;2022-07-23T15:19:34;99713.59;;;24.41;63.84
17450;BME280;8842;51.244;7.102;2022-07-23T15:29:50;99708.96;;;24.52;61.44
17450;BME280;8842;51.244;7.102;2022-07-23T15:40:09;99711.19;;;24.59;61.11
17450;BME280;8842;51.244;7.102;2022-07-23T15:55:38;99714.28;;;24.49;60.24
17450;BME280;8842;51.244;7.102;2022-07-23T16:06:13;99714.67;;;24.29;64.45
17450;BME280;8842;51.244;7.102;2022-07-23T16:16:31;99712.64;;;24.21;64.07
17450;BME280;8842;51.244;7.102;2022-07-23T16:26:47;99713.14;;;24.20;63.08
17450;BME280;8842;51.244;7.102;2022-07-23T16:37:07;99704.31;;;24.29;61.21
17450;BME280;8842;51.244;7.102;2022-07-23T16:47:22;99703.92;;;24.15;62.73
17450;BME280;8842;51.244;7.102;2022-07-23T16:57:41;99702.83;;;24.20;60.26
17450;BME280;8842;51.244;7.102;2022-07-23T17:07:57;99697.56;;;24.01;62.27
17450;BME280;8842;51.244;7.102;2022-07-23T17:18:17;99712.37;;;23.78;62.02
17450;BME280;8842;51.244;7.102;2022-07-23T17:28:33;99711.30;;;23.72;62.87
17450;BME280;8842;51.244;7.102;2022-07-23T17:38:49;99710.77;;;23.62;61.06
17450;BME280;8842;51.244;7.102;2022-07-23T17:54:21;99701.34;;;23.47;61.67
17450;BME280;8842;51.244;7.102;2022-07-23T17:59:27;99703.75;;;23.46;61.85
17450;BME280;8842;51.244;7.102;2022-07-23T18:14:54;99706.45;;;23.36;62.56
17450;BME280;8842;51.244;7.102;2022-07-23T18:25:11;99709.66;;;23.25;61.44
17450;BME280;8842;51.244;7.102;2022-07-23T18:35:29;99723.22;;;23.25;62.88
17450;BME280;8842;51.244;7.102;2022-07-23T18:45:46;99724.53;;;23.04;64.55
17450;BME280;8842;51.244;7.102;2022-07-23T18:56:01;99726.20;;;22.80;65.46
17450;BME280;8842;51.244;7.102;2022-07-23T19:06:17;99734.42;;;22.72;68.75
17450;BME280;8842;51.244;7.102;2022-07-23T19:16:33;99735.30;;;22.58;71.71
17450;BME280;8842;51.244;7.102;2022-07-23T19:26:50;99744.39;;;22.42;71.37
17450;BME280;8842;51.244;7.102;2022-07-23T19:42:20;99743.48;;;21.84;75.67
17450;BME280;8842;51.244;7.102;2022-07-23T19:52:37;99748.95;;;21.49;77.91
17450;BME280;8842;51.244;7.102;2022-07-23T20:02:53;99759.84;;;21.10;81.00
17450;BME280;8842;51.244;7.102;2022-07-23T20:13:09;99766.98;;;20.99;82.12
17450;BME280;8842;51.244;7.102;2022-07-23T20:23:28;99773.51;;;20.70;85.56
17450;BME280;8842;51.244;7.102;2022-07-23T20:38:57;99780.03;;;20.25;91.97
17450;BME280;8842;51.244;7.102;2022-07-23T20:49:59;99781.72;;;19.94;93.40
17450;BME280;8842;51.244;7.102;2022-07-23T21:00:26;99786.79;;;19.61;95.23
17450;BME280;8842;51.244;7.102;2022-07-23T21:05:31;99793.48;;;19.37;99.11
17450;BME280;8842;51.244;7.102;2022-07-23T21:15:50;99802.09;;;19.40;97.57
17450;BME280;8842;51.244;7.102;2022-07-23T21:31:20;99800.64;;;19.24;100.00
17450;BME280;8842;51.244;7.102;2022-07-23T21:41:36;99801.53;;;19.29;97.22
17450;BME280;8842;51.244;7.102;2022-07-23T21:51:53;99803.44;;;19.40;97.52
17450;BME280;8842;51.244;7.102;2022-07-23T22:02:12;99806.92;;;19.29;99.83
17450;BME280;8842;51.244;7.102;2022-07-23T22:12:28;99807.33;;;19.04;100.00
17450;BME280;8842;51.244;7.102;2022-07-23T22:22:46;99801.89;;;18.92;100.00
17450;BME280;8842;51.244;7.102;2022-07-23T22:33:02;99821.11;;;18.97;100.00
17450;BME280;8842;51.244;7.102;2022-07-23T22:43:18;99818.05;;;18.88;100.00
17450;BME280;8842;51.244;7.102;2022-07-23T22:53:34;99812.83;;;18.91;100.00
17450;BME280;8842;51.244;7.102;2022-07-23T23:03:52;99814.42;;;18.72;100.00
17450;BME280;8842;51.244;7.102;2022-07-23T23:14:08;99809.05;;;18.76;100.00
17450;BME280;8842;51.244;7.102;2022-07-23T23:24:26;99812.31;;;18.58;100.00
17450;BME280;8842;51.244;7.102;2022-07-23T23:34:41;99813.48;;;18.55;100.00
17450;BME280;8842;51.244;7.102;2022-07-23T23:44:57;99812.50;;;18.35;100.00
17450;BME280;8842;51.244;7.102;2022-07-23T23:55:18;99805.22;;;18.27;100.00
